Terminal Aerodrome Forecast
Issued by NWS

Home | Current Version | Previous Version | Text Only | Print | Product List | Glossary On
Versions: 1 2 3 4 5 6 7 8 9 10 11 12 13 14 15 16 17 18 19 20 21 22 23 24
000
FTUS46 KMFR 301700
TAFOTH
TAF
KOTH 301739Z 3018/0118 VRB03KT P6SM FEW020 SCT035 BKN060
     FM302000 33008KT P6SM SCT035 SCT060
     FM302200 34012G18KT P6SM FEW035
     FM010600 02006KT P6SM FEW012
     FM011200 12003KT 5SM BR SCT002
     FM011500 VRB03KT P6SM SKC=

USA.gov is the U.S. government's official web portal to all federal, state and local government web resources and services.